Weather at McConnaughhay's Field

Public forecast

Using degrees Fahrenheit for public forecast. Weather courtesy of forecast.io.

Closest aviation weather report (METAR) to McConnaughhay's Field

Closest report is Searcy Municipal Airport, 8.2 nm (15.2 km) NW. Retrieved 2021/07/26 03:56 UTC (39 minutes ago):

KSRC 260356Z AUTO 31004KT 10SM CLR 24/24 A2995 RMK AO2 SLP139 T02390239

Closest aviation forecast (TAF) to McConnaughhay's Field

Closest forecast is Little Rock Air Force Base, 27.1 nm (50.2 km) WSW. Retrieved 2021-07-26 23:06 UTC (0 seconds ago):

TAF TAF KLRF 252301Z 2523/2705 21012KT 9999 VCTS BKN045CB BKN120 QNH2993INS BECMG 2600/2601 VRB06KT 9999 NSW BKN050 QNH2990INS BECMG 2617/2618 17012KT 9000 -SHRA BKN045 OVC120 QNH2991INS TEMPO 2618/2621 19010G15KT 8000 -TSRA BKN030CB BECMG 2621/2622 09009KT 9999 NSW SCT040 BKN120 QNH2992INS TX35/2621Z TN25/2611Z